world map with ATI marked

ATI - Airport

This information may not be accurate or current and is not valid for navigation or flight planning. No warranty of fitness for any purpose is made or implied.

flag of Artigasflag of Uruguay

Donate via PayPal

Additional information is available on the NEW Great Circle Mapper

Location
City:  Artigas, Artigas, Uruguay
Name:Artigas International Airport
ICAO / IATA:SUAG / ATI

Details
Type:Airport (Aerodrome, Airfield)
Use:Public/Civil
Latitude:30°24'03"S (-30.400705)
Longitude:56°30'28"W (-56.507868)
Datum:WGS 1984
Elevation:410 ft (125 m)
Runways:unknown number
Longest:4183 ft (1275 m)

Time
Timezone:UTC+31:08 (DST+33:08)
Local Time:

Weather
METAR:SUAG  121500Z 00000KT 9999 FEW013 SCT026 OVC090 21/21 Q1013
TAF:SUAG  (expired)

Related Locations
Nearby:
Farthest:HSN: 12366 mi / 19902 km
Zhoushan (Chusan), 33, CN

Find:

   beyond  
but within

Other Information
Maps:
Sources:

  


 


Great Circle Mapper   Great Circle Mapper
Great Circle Mapper FAQ   Great Circle Mapper FAQ
  Karl's Home Page
KLSē   KLSē Home
   GC on Facebook
Airlines of the World   Airlines of the World
Donate via PayPal


Copyright © 2004-2018, Karl L. Swartz. All rights reserved.
All trademarks mentioned herein belong to their respective owners.

Please see credits for attribution and copyright information.

Karl Swartz <karl@kls2.com>
  Powered by FreeBSD
Valid HTML 4.01!
Labeled with ICRA
hCard Microformat
Geo Microformat